Adelanto, California
Current Conditions -  °F | °C
As of 7:35 AM on Thursday 27 Nov 2014 (Local Time) from KVCV Reporting Station
Clear Clear  
Wind Chill: 35°   Ceiling: Unl
Heat Index: 39°   Visibility: 10mi
Dew Point: 14°   Wind: 6mph
Humidity: 36%   Direction: 180°S
Pressure: 30.3"   Gusts: NA
Location:  34.58°N, 117.41°W
Report Text: KVCV 271535Z AUTO 18005KT 10SM CLR 04/M10 A3030 RMK AO2
Loading
Personal Weather Stations






























Interactive Weather Map New forecast layout! Learn more

10-Day Weather Forecast

Advertisements
Track Severe Weather on mobile